createdAt,value
2018-06-10T00:02:05.928Z,95.50
2018-06-10T00:04:41.008Z,94.20
2018-06-10T00:07:16.188Z,95.60
2018-06-10T00:09:51.224Z,95.70
2018-06-10T00:12:26.355Z,95.10
2018-06-10T00:15:01.422Z,94.30
2018-06-10T00:17:36.532Z,94.10
2018-06-10T00:20:12.296Z,93.50
2018-06-10T00:22:47.413Z,93.90
2018-06-10T00:25:22.421Z,94.50
2018-06-10T00:27:57.428Z,94.10
2018-06-10T00:30:32.552Z,94.50
2018-06-10T00:35:42.896Z,94.90
2018-06-10T00:38:17.904Z,95.20
2018-06-10T00:40:52.943Z,95.50
2018-06-10T00:43:27.977Z,95.60
2018-06-10T00:46:03.188Z,95.00
2018-06-10T00:48:38.182Z,94.40
2018-06-10T00:51:13.116Z,94.10
2018-06-10T00:53:48.232Z,94.50
2018-06-10T00:56:34.600Z,94.80
2018-06-10T00:59:09.772Z,94.40
2018-06-10T01:01:44.793Z,94.80
2018-06-10T01:04:19.947Z,94.50
2018-06-10T01:06:55.076Z,94.60
2018-06-10T01:09:30.192Z,94.70
2018-06-10T01:12:05.160Z,95.60
2018-06-10T01:14:40.312Z,95.60
2018-06-10T01:17:15.263Z,94.70
2018-06-10T01:19:50.257Z,93.80
2018-06-10T01:22:25.428Z,94.30
2018-06-10T01:25:00.489Z,94.60
2018-06-10T01:27:35.623Z,95.40
2018-06-10T01:30:10.717Z,95.70
2018-06-10T01:32:45.964Z,94.20
2018-06-10T01:37:55.908Z,93.00
2018-06-10T01:40:30.843Z,93.00
2018-06-10T01:43:05.912Z,92.70
2018-06-10T01:45:41.032Z,92.00
2018-06-10T01:48:16.040Z,93.10
2018-06-10T01:50:51.199Z,93.70
2018-06-10T01:53:26.287Z,93.00
2018-06-10T01:56:01.385Z,93.00
2018-06-10T01:58:36.333Z,92.80
2018-06-10T02:01:11.647Z,93.30
2018-06-10T02:03:46.779Z,93.90
2018-06-10T02:06:21.911Z,93.50
2018-06-10T02:08:56.848Z,92.90
2018-06-10T02:11:31.861Z,93.20
2018-06-10T02:14:06.887Z,93.00
2018-06-10T02:16:41.996Z,93.80
2018-06-10T02:19:16.982Z,94.60
2018-06-10T02:21:52.179Z,94.50
2018-06-10T02:24:27.180Z,94.60
2018-06-10T02:27:02.197Z,95.10
2018-06-10T02:29:37.244Z,96.00
2018-06-10T02:32:12.328Z,94.90
2018-06-10T02:34:47.521Z,95.80
2018-06-10T02:37:22.635Z,94.80
2018-06-10T02:39:57.680Z,94.80
2018-06-10T02:42:32.797Z,95.50
2018-06-10T02:45:07.908Z,95.80
2018-06-10T02:47:43.123Z,96.10
2018-06-10T02:50:18.100Z,96.20
2018-06-10T02:52:53.075Z,96.50
2018-06-10T02:55:28.150Z,96.10
2018-06-10T02:58:03.540Z,97.60
2018-06-10T03:00:38.568Z,96.40
2018-06-10T03:03:13.621Z,97.40
2018-06-10T03:05:48.547Z,97.40
2018-06-10T03:08:23.686Z,97.50
2018-06-10T03:10:59.041Z,97.40
2018-06-10T03:13:34.066Z,98.00
2018-06-10T03:16:09.308Z,97.40
2018-06-10T03:18:44.404Z,97.50
2018-06-10T03:21:19.597Z,99.00
2018-06-10T03:23:54.625Z,99.30
2018-06-10T03:26:29.673Z,98.50
2018-06-10T03:29:04.739Z,97.50
2018-06-10T03:31:39.901Z,97.30
2018-06-10T03:34:14.848Z,98.10
2018-06-10T03:36:49.983Z,97.50
2018-06-10T03:39:24.913Z,97.80
2018-06-10T03:42:00.148Z,97.80
2018-06-10T03:44:35.237Z,97.60
2018-06-10T03:47:10.280Z,98.30
2018-06-10T03:49:45.364Z,99.30
2018-06-10T03:52:20.297Z,99.90
2018-06-10T03:54:55.320Z,99.40
2018-06-10T03:57:30.339Z,99.70
2018-06-10T04:00:05.504Z,98.90
2018-06-10T04:02:40.728Z,98.80
2018-06-10T04:05:15.840Z,99.90
2018-06-10T04:07:50.835Z,99.10
2018-06-10T04:10:25.952Z,99.50
2018-06-10T04:13:01.466Z,99.90
2018-06-10T04:15:36.396Z,99.90
2018-06-10T04:18:11.579Z,99.90
2018-06-10T04:20:46.716Z,99.90
2018-06-10T04:23:21.868Z,99.90
2018-06-10T04:25:56.946Z,99.60
2018-06-10T04:28:32.042Z,99.90
2018-06-10T04:31:07.180Z,99.90
2018-06-10T04:33:42.187Z,99.90
2018-06-10T04:36:17.286Z,99.90
2018-06-10T04:38:52.247Z,99.90
2018-06-10T04:41:27.236Z,99.90
2018-06-10T04:46:37.157Z,99.90
2018-06-10T04:49:12.240Z,99.90
2018-06-10T04:51:47.235Z,99.90
2018-06-10T04:54:22.352Z,99.90
2018-06-10T04:56:57.403Z,99.90
2018-06-10T04:59:32.383Z,99.90
2018-06-10T05:02:07.614Z,99.90
2018-06-10T05:04:42.644Z,99.90
2018-06-10T05:07:17.750Z,99.90
2018-06-10T05:09:52.676Z,99.90
2018-06-10T05:12:27.868Z,99.90
2018-06-10T05:17:37.640Z,99.90
2018-06-10T05:20:12.737Z,99.90
2018-06-10T05:22:47.720Z,99.90
2018-06-10T05:25:22.791Z,99.90
2018-06-10T05:27:57.931Z,99.90
2018-06-10T05:30:33.055Z,99.90
2018-06-10T05:33:08.115Z,99.90
2018-06-10T05:35:43.084Z,99.90
2018-06-10T05:38:18.044Z,99.90
2018-06-10T05:40:52.976Z,99.90
2018-06-10T05:43:28.116Z,99.90
2018-06-10T05:46:03.200Z,99.90
2018-06-10T05:48:38.213Z,99.90
2018-06-10T05:51:13.298Z,99.70
2018-06-10T05:53:48.396Z,99.50
2018-06-10T05:56:23.464Z,99.20
2018-06-10T05:58:58.472Z,98.50
2018-06-10T06:01:33.524Z,99.40
2018-06-10T06:04:08.520Z,99.90
2018-06-10T06:06:43.511Z,99.70
2018-06-10T06:09:18.629Z,99.00
2018-06-10T06:11:53.548Z,99.60
2018-06-10T06:14:28.707Z,98.30
2018-06-10T06:17:03.719Z,98.40
2018-06-10T06:19:38.790Z,98.20
2018-06-10T06:22:13.870Z,97.50
2018-06-10T06:24:48.848Z,97.10
2018-06-10T06:27:23.943Z,97.10
2018-06-10T06:29:58.999Z,97.50
2018-06-10T06:32:34.001Z,97.80
2018-06-10T06:35:09.060Z,95.60
2018-06-10T06:37:44.196Z,93.70
2018-06-10T06:40:19.187Z,94.70
2018-06-10T06:42:54.299Z,94.80
2018-06-10T06:45:29.303Z,94.80
2018-06-10T06:48:04.520Z,96.30
2018-06-10T06:50:39.589Z,95.80
2018-06-10T06:53:14.746Z,95.70
2018-06-10T06:55:49.693Z,95.70
2018-06-10T06:58:25.352Z,95.30
2018-06-10T07:01:00.361Z,95.00
2018-06-10T07:03:35.459Z,95.40
2018-06-10T07:06:11.521Z,95.30
2018-06-10T07:08:46.652Z,95.10
2018-06-10T07:11:21.812Z,95.20
2018-06-10T07:13:58.136Z,95.00
2018-06-10T07:16:34.199Z,95.10
2018-06-10T07:19:10.145Z,94.70
2018-06-10T07:21:46.231Z,96.80
2018-06-10T07:24:22.201Z,96.60
2018-06-10T07:26:57.958Z,95.80
2018-06-10T07:29:34.132Z,95.10
2018-06-10T07:32:09.941Z,93.70
2018-06-10T07:34:48.277Z,94.20
2018-06-10T07:37:23.228Z,96.40
2018-06-10T07:39:58.166Z,94.30
2018-06-10T07:45:07.892Z,95.90
2018-06-10T07:47:42.940Z,95.70
2018-06-10T07:50:18.072Z,95.60
2018-06-10T07:52:53.127Z,93.90
2018-06-10T07:55:28.278Z,94.90
2018-06-10T07:58:03.431Z,95.80
2018-06-10T08:00:38.609Z,94.30
2018-06-10T08:03:13.559Z,94.20
2018-06-10T08:05:48.804Z,93.50
2018-06-10T08:08:23.903Z,93.20
2018-06-10T08:10:58.995Z,93.90
2018-06-10T08:13:34.127Z,93.40
2018-06-10T08:16:09.169Z,92.70
2018-06-10T08:18:44.391Z,91.90
2018-06-10T08:21:19.599Z,91.20
2018-06-10T08:23:54.652Z,90.30
2018-06-10T08:26:29.699Z,87.10
2018-06-10T08:29:05.735Z,86.80
2018-06-10T08:31:40.856Z,85.80
2018-06-10T08:34:15.944Z,85.20
2018-06-10T08:36:51.120Z,86.30
2018-06-10T08:39:26.207Z,87.10
2018-06-10T08:42:01.216Z,87.40
2018-06-10T08:44:36.375Z,90.00
2018-06-10T08:47:11.441Z,90.00
2018-06-10T08:49:46.521Z,86.80
2018-06-10T08:52:21.752Z,85.40
2018-06-10T08:54:56.931Z,87.80
2018-06-10T08:57:32.132Z,85.50
2018-06-10T09:00:07.376Z,84.90
2018-06-10T09:02:42.438Z,86.10
2018-06-10T09:05:17.408Z,88.00
2018-06-10T09:07:52.572Z,90.40
2018-06-10T09:10:27.660Z,91.00
2018-06-10T09:13:02.628Z,91.30
2018-06-10T09:15:37.627Z,90.90
2018-06-10T09:18:12.656Z,90.30
2018-06-10T09:20:47.632Z,88.70
2018-06-10T09:23:22.595Z,85.90
2018-06-10T09:25:57.588Z,88.30
2018-06-10T09:28:32.621Z,88.90
2018-06-10T09:31:07.667Z,84.60
2018-06-10T09:33:42.716Z,84.90
2018-06-10T09:36:17.808Z,86.40
2018-06-10T09:38:52.848Z,87.70
2018-06-10T09:41:27.974Z,86.20
2018-06-10T09:44:03.357Z,83.10
2018-06-10T09:46:38.269Z,83.60
2018-06-10T09:49:13.384Z,84.80
2018-06-10T09:51:48.588Z,84.20
2018-06-10T09:54:23.739Z,83.90
2018-06-10T09:56:58.863Z,84.40
2018-06-10T09:59:34.208Z,86.20
2018-06-10T10:02:09.291Z,87.30
2018-06-10T10:04:44.404Z,88.40
2018-06-10T10:07:19.525Z,87.80
2018-06-10T10:09:54.488Z,86.70
2018-06-10T10:12:29.494Z,86.60
2018-06-10T10:15:04.629Z,84.50
2018-06-10T10:17:39.768Z,84.70
2018-06-10T10:20:14.837Z,83.00
2018-06-10T10:22:50.011Z,86.20
2018-06-10T10:25:24.968Z,85.80
2018-06-10T10:28:00.132Z,86.80
2018-06-10T10:30:35.227Z,88.50
2018-06-10T10:33:10.348Z,86.10
2018-06-10T10:35:45.457Z,86.80
2018-06-10T10:38:20.680Z,84.30
2018-06-10T10:40:55.784Z,81.20
2018-06-10T10:43:30.931Z,83.80
2018-06-10T10:46:06.016Z,85.00
2018-06-10T10:48:41.036Z,85.90
2018-06-10T10:51:16.036Z,81.80
2018-06-10T10:53:51.008Z,80.00
2018-06-10T10:56:26.080Z,81.50
2018-06-10T10:59:01.107Z,80.40
2018-06-10T11:01:36.276Z,75.60
2018-06-10T11:04:11.392Z,75.80
2018-06-10T11:06:46.553Z,77.90
2018-06-10T11:09:21.652Z,77.70
2018-06-10T11:11:56.794Z,73.10
2018-06-10T11:14:31.756Z,74.70
2018-06-10T11:17:06.883Z,78.20
2018-06-10T11:19:41.820Z,77.10
2018-06-10T11:22:16.929Z,70.10
2018-06-10T11:24:51.996Z,75.00
2018-06-10T11:27:27.106Z,73.30
2018-06-10T11:30:02.093Z,73.00
2018-06-10T11:32:37.165Z,74.10
2018-06-10T11:35:12.236Z,76.20
2018-06-10T11:37:47.337Z,73.60
2018-06-10T11:40:22.486Z,71.00
2018-06-10T11:42:57.560Z,71.50
2018-06-10T11:45:32.473Z,78.30
2018-06-10T11:48:07.536Z,72.80
2018-06-10T11:50:42.491Z,78.80
2018-06-10T11:53:17.652Z,73.00
2018-06-10T11:55:52.681Z,76.70
2018-06-10T11:58:27.660Z,79.30
2018-06-10T12:01:02.723Z,71.00
2018-06-10T12:03:37.813Z,76.40
2018-06-10T12:06:12.956Z,73.40
2018-06-10T12:08:48.107Z,77.60
2018-06-10T12:11:23.052Z,76.50
2018-06-10T12:13:57.973Z,76.90
2018-06-10T12:16:33.134Z,75.90
2018-06-10T12:19:08.120Z,75.10
2018-06-10T12:21:43.176Z,69.00
2018-06-10T12:24:18.124Z,75.80
2018-06-10T12:26:53.279Z,75.10
2018-06-10T12:29:28.455Z,67.70
2018-06-10T12:32:03.456Z,67.80
2018-06-10T12:34:39.092Z,70.10
2018-06-10T12:37:14.204Z,76.40
2018-06-10T12:39:49.284Z,74.10
2018-06-10T12:42:24.348Z,67.30
2018-06-10T12:44:59.337Z,74.40
2018-06-10T12:47:34.492Z,69.60
2018-06-10T12:50:09.660Z,73.00
2018-06-10T12:52:44.661Z,71.80
2018-06-10T12:55:19.875Z,71.80
2018-06-10T12:57:55.004Z,73.80
2018-06-10T13:00:30.130Z,74.10
2018-06-10T13:03:05.333Z,74.10
2018-06-10T13:05:40.500Z,73.40
2018-06-10T13:08:16.826Z,73.50
2018-06-10T13:10:51.948Z,72.90
2018-06-10T13:13:26.984Z,73.80
2018-06-10T13:16:02.161Z,74.60
2018-06-10T13:18:37.280Z,73.50
2018-06-10T13:21:12.265Z,73.90
2018-06-10T13:23:47.324Z,73.50
2018-06-10T13:26:22.435Z,73.30
2018-06-10T13:28:57.604Z,71.60
2018-06-10T13:31:32.747Z,72.30
2018-06-10T13:34:07.792Z,70.90
2018-06-10T13:36:42.864Z,71.30
2018-06-10T13:39:18.024Z,72.60
2018-06-10T13:41:53.021Z,73.10
2018-06-10T13:44:28.080Z,72.50
2018-06-10T13:47:03.397Z,73.30
2018-06-10T13:49:38.307Z,74.30
2018-06-10T13:52:13.365Z,74.90
2018-06-10T13:54:48.424Z,74.00
2018-06-10T13:57:23.846Z,73.00
2018-06-10T13:59:58.964Z,69.70
2018-06-10T14:05:08.720Z,73.20
2018-06-10T14:07:43.884Z,70.60
2018-06-10T14:10:18.960Z,70.10
2018-06-10T14:12:53.977Z,70.30
2018-06-10T14:15:29.048Z,70.40
2018-06-10T14:18:04.125Z,71.50
2018-06-10T14:20:39.366Z,69.80
2018-06-10T14:23:14.608Z,72.80
2018-06-10T14:25:49.744Z,71.90
2018-06-10T14:28:25.713Z,71.80
2018-06-10T14:31:01.005Z,71.70
2018-06-10T14:33:36.077Z,71.70
2018-06-10T14:36:11.258Z,72.50
2018-06-10T14:38:46.331Z,70.50
2018-06-10T14:41:21.448Z,70.90
2018-06-10T14:43:56.616Z,70.60
2018-06-10T14:46:31.595Z,72.50
2018-06-10T14:49:06.597Z,70.30
2018-06-10T14:51:41.977Z,71.20
2018-06-10T14:54:17.197Z,69.60
2018-06-10T14:56:52.272Z,70.30
2018-06-10T14:59:27.404Z,70.90
2018-06-10T15:02:02.575Z,68.40
2018-06-10T15:04:37.557Z,70.00
2018-06-10T15:07:12.644Z,68.70
2018-06-10T15:12:22.376Z,67.40
2018-06-10T15:14:57.520Z,68.10
2018-06-10T15:17:32.644Z,67.60
2018-06-10T15:20:07.795Z,66.60
2018-06-10T15:22:42.888Z,67.10
2018-06-10T15:25:18.012Z,67.90
2018-06-10T15:27:53.061Z,67.90
2018-06-10T15:30:28.032Z,66.60
2018-06-10T15:33:02.945Z,66.10
2018-06-10T15:35:37.924Z,65.90
2018-06-10T15:38:13.044Z,66.80
2018-06-10T15:40:48.049Z,66.70
2018-06-10T15:43:23.179Z,65.70
2018-06-10T15:45:58.312Z,66.20
2018-06-10T15:48:33.425Z,66.50
2018-06-10T15:51:08.574Z,66.30
2018-06-10T15:53:43.701Z,67.20
2018-06-10T15:56:18.599Z,66.30
2018-06-10T15:58:53.649Z,66.60
2018-06-10T16:01:28.811Z,65.20
2018-06-10T16:04:03.872Z,65.30
2018-06-10T16:06:39.012Z,66.70
2018-06-10T16:09:14.164Z,67.00
2018-06-10T16:11:49.264Z,65.70
2018-06-10T16:14:24.192Z,66.50
2018-06-10T16:16:59.372Z,66.80
2018-06-10T16:19:34.452Z,65.30
2018-06-10T16:22:09.626Z,65.70
2018-06-10T16:24:44.700Z,64.40
2018-06-10T16:27:19.648Z,65.40
2018-06-10T16:29:54.792Z,66.60
2018-06-10T16:32:29.759Z,64.30
2018-06-10T16:35:04.860Z,63.80
2018-06-10T16:37:39.944Z,63.70
2018-06-10T16:40:15.112Z,64.10
2018-06-10T16:42:50.107Z,63.30
2018-06-10T16:45:25.165Z,63.70
2018-06-10T16:48:00.348Z,63.60
2018-06-10T16:50:35.312Z,63.50
2018-06-10T16:53:10.477Z,62.90
2018-06-10T16:55:45.488Z,63.40
2018-06-10T16:58:20.688Z,62.90
2018-06-10T17:00:55.861Z,64.90
2018-06-10T17:03:30.992Z,64.40
2018-06-10T17:06:06.115Z,65.10
2018-06-10T17:08:41.184Z,64.40
2018-06-10T17:11:16.300Z,66.10
2018-06-10T17:13:51.345Z,65.50
2018-06-10T17:16:26.565Z,66.10
2018-06-10T17:19:01.916Z,66.30
2018-06-10T17:21:37.007Z,66.10
2018-06-10T17:24:11.951Z,67.00
2018-06-10T17:26:47.144Z,67.00
2018-06-10T17:29:22.256Z,67.60
2018-06-10T17:31:57.213Z,67.90
2018-06-10T17:34:32.340Z,67.20
2018-06-10T17:37:07.440Z,67.80
2018-06-10T17:39:42.539Z,68.20
2018-06-10T17:42:17.761Z,67.90
2018-06-10T17:44:52.816Z,68.80
2018-06-10T17:47:27.957Z,67.40
2018-06-10T17:50:03.002Z,68.50
2018-06-10T17:52:38.123Z,67.60
2018-06-10T17:55:13.109Z,69.10
2018-06-10T17:57:48.228Z,68.90
2018-06-10T18:00:23.224Z,70.30
2018-06-10T18:02:58.360Z,69.80
2018-06-10T18:05:33.468Z,70.50
2018-06-10T18:08:08.548Z,71.90
2018-06-10T18:10:43.580Z,72.00
2018-06-10T18:13:18.639Z,71.60
2018-06-10T18:15:53.753Z,72.90
2018-06-10T18:18:28.856Z,71.80
2018-06-10T18:21:04.151Z,71.20
2018-06-10T18:23:39.067Z,71.10
2018-06-10T18:26:14.233Z,71.70
2018-06-10T18:28:49.484Z,71.50
2018-06-10T18:31:24.460Z,72.50
2018-06-10T18:33:59.604Z,72.30
2018-06-10T18:36:34.763Z,72.00
2018-06-10T18:39:09.772Z,73.50
2018-06-10T18:41:44.856Z,72.80
2018-06-10T18:46:54.596Z,73.00
2018-06-10T18:49:29.717Z,73.20
2018-06-10T18:52:04.795Z,73.10
2018-06-10T18:54:39.901Z,72.40
2018-06-10T18:57:14.888Z,73.40
2018-06-10T18:59:50.013Z,73.00
2018-06-10T19:02:25.160Z,72.90
2018-06-10T19:05:00.246Z,74.30
2018-06-10T19:07:35.367Z,74.60
2018-06-10T19:10:10.536Z,74.00
2018-06-10T19:12:45.477Z,74.80
2018-06-10T19:15:20.628Z,76.50
2018-06-10T19:17:55.800Z,75.10
2018-06-10T19:20:30.916Z,74.90
2018-06-10T19:23:05.937Z,74.80
2018-06-10T19:25:41.080Z,76.00
2018-06-10T19:28:16.121Z,76.10
2018-06-10T19:30:51.217Z,75.80
2018-06-10T19:33:26.336Z,75.50
2018-06-10T19:36:01.389Z,75.60
2018-06-10T19:38:36.616Z,77.60
2018-06-10T19:41:11.748Z,76.60
2018-06-10T19:43:46.828Z,78.00
2018-06-10T19:46:21.826Z,79.20
2018-06-10T19:48:56.776Z,78.30
2018-06-10T19:51:31.910Z,77.10
2018-06-10T19:54:06.962Z,78.30
2018-06-10T19:56:42.052Z,78.80
2018-06-10T19:59:17.150Z,78.60
2018-06-10T20:01:52.132Z,78.10
2018-06-10T20:04:28.075Z,78.80
2018-06-10T20:07:03.083Z,77.30
2018-06-10T20:09:38.255Z,78.10
2018-06-10T20:12:13.328Z,78.90
2018-06-10T20:14:48.476Z,79.80
2018-06-10T20:17:23.607Z,79.10
2018-06-10T20:19:58.748Z,79.40
2018-06-10T20:22:33.768Z,78.70
2018-06-10T20:25:08.805Z,79.00
2018-06-10T20:30:18.496Z,81.10
2018-06-10T20:32:53.558Z,81.30
2018-06-10T20:35:28.522Z,80.20
2018-06-10T20:38:03.688Z,78.00
2018-06-10T20:40:38.948Z,79.70
2018-06-10T20:43:14.181Z,82.10
2018-06-10T20:45:49.177Z,82.30
2018-06-10T20:48:24.171Z,80.70
2018-06-10T20:50:59.069Z,82.90
2018-06-10T20:56:09.052Z,81.30
2018-06-10T20:58:44.144Z,80.20
2018-06-10T21:01:19.204Z,80.50
2018-06-10T21:03:54.319Z,80.80
2018-06-10T21:06:29.444Z,82.40
2018-06-10T21:09:06.768Z,81.10
2018-06-10T21:11:42.001Z,83.00
2018-06-10T21:14:16.939Z,82.00
2018-06-10T21:16:52.078Z,84.90
2018-06-10T21:19:27.256Z,81.90
2018-06-10T21:22:02.475Z,82.90
2018-06-10T21:24:37.560Z,82.00
2018-06-10T21:27:12.733Z,83.70
2018-06-10T21:29:47.810Z,82.00
2018-06-10T21:32:22.936Z,83.80
2018-06-10T21:34:58.015Z,83.50
2018-06-10T21:37:33.250Z,84.40
2018-06-10T21:40:08.356Z,84.90
2018-06-10T21:42:43.523Z,83.00
2018-06-10T21:45:18.687Z,84.40
2018-06-10T21:47:53.791Z,82.80
2018-06-10T21:50:28.756Z,82.40
2018-06-10T21:53:03.888Z,81.90
2018-06-10T21:55:38.952Z,84.40
2018-06-10T21:58:14.138Z,84.80
2018-06-10T22:00:49.176Z,85.30
2018-06-10T22:03:24.196Z,86.10
2018-06-10T22:05:59.376Z,85.40
2018-06-10T22:08:34.435Z,85.70
2018-06-10T22:11:09.312Z,84.20
2018-06-10T22:13:44.357Z,83.60
2018-06-10T22:16:19.420Z,84.50
2018-06-10T22:18:54.588Z,85.00
2018-06-10T22:21:29.632Z,85.70
2018-06-10T22:24:04.996Z,87.50
2018-06-10T22:26:39.907Z,85.40
2018-06-10T22:29:14.990Z,86.10
2018-06-10T22:31:50.136Z,87.50
2018-06-10T22:34:25.268Z,86.70
2018-06-10T22:37:00.318Z,88.90
2018-06-10T22:39:35.337Z,86.30
2018-06-10T22:42:10.319Z,85.90
2018-06-10T22:44:45.440Z,85.00
2018-06-10T22:47:20.703Z,87.10
2018-06-10T22:49:55.774Z,87.00
2018-06-10T22:52:30.839Z,87.90
2018-06-10T22:55:05.992Z,88.40
2018-06-10T22:57:41.084Z,87.20
2018-06-10T23:00:16.053Z,86.50
2018-06-10T23:02:51.217Z,88.60
2018-06-10T23:05:26.320Z,88.30
2018-06-10T23:08:01.353Z,87.60
2018-06-10T23:10:36.360Z,89.10
2018-06-10T23:13:11.437Z,90.20
2018-06-10T23:15:46.369Z,89.60
2018-06-10T23:18:21.464Z,90.00
2018-06-10T23:20:56.485Z,90.20
2018-06-10T23:23:31.644Z,90.10
2018-06-10T23:26:06.653Z,90.20
2018-06-10T23:28:41.803Z,89.90
2018-06-10T23:31:16.936Z,90.30
2018-06-10T23:33:52.025Z,90.80
2018-06-10T23:36:27.020Z,90.40
2018-06-10T23:39:02.148Z,90.40
2018-06-10T23:41:37.200Z,89.70
2018-06-10T23:44:12.289Z,89.10
2018-06-10T23:46:47.276Z,90.10
2018-06-10T23:49:22.475Z,90.40
2018-06-10T23:51:57.507Z,90.00
2018-06-10T23:54:32.660Z,90.30
2018-06-10T23:59:42.520Z,90.60
